createdAt,value
2022-09-09T00:02:01.506Z,28.50
2022-09-09T00:05:02.954Z,25.67
2022-09-09T00:07:52.892Z,25.67
2022-09-09T00:10:42.723Z,25.07
2022-09-09T00:13:47.105Z,24.70
2022-09-09T00:16:39.691Z,25.27
2022-09-09T00:19:41.671Z,26.63
2022-09-09T00:22:32.323Z,23.93
2022-09-09T00:25:29.068Z,23.67
2022-09-09T00:28:26.817Z,24.87
2022-09-09T00:31:20.803Z,23.07
2022-09-09T00:34:17.321Z,22.23
2022-09-09T00:37:04.355Z,21.93
2022-09-09T00:39:53.458Z,24.30
2022-09-09T00:42:45.558Z,22.27
2022-09-09T00:45:58.358Z,21.90
2022-09-09T00:48:52.356Z,23.00
2022-09-09T00:51:45.552Z,21.60
2022-09-09T00:54:51.144Z,22.17
2022-09-09T00:57:39.114Z,21.17
2022-09-09T01:00:30.921Z,21.97
2022-09-09T01:03:31.976Z,21.10
2022-09-09T01:06:32.816Z,21.63
2022-09-09T01:10:00.407Z,21.23
2022-09-09T01:12:48.733Z,21.90
2022-09-09T01:15:36.528Z,23.77
2022-09-09T01:18:32.014Z,24.33
2022-09-09T01:21:33.680Z,22.90
2022-09-09T01:24:32.206Z,21.47
2022-09-09T01:27:20.674Z,19.63
2022-09-09T01:30:17.070Z,21.37
2022-09-09T01:33:05.306Z,23.03
2022-09-09T01:36:01.616Z,21.23
2022-09-09T01:38:48.967Z,22.00
2022-09-09T01:41:35.900Z,21.17
2022-09-09T01:44:23.450Z,21.70
2022-09-09T01:47:10.748Z,21.93
2022-09-09T01:49:58.038Z,20.67
2022-09-09T01:52:48.378Z,20.70
2022-09-09T01:55:44.707Z,21.17
2022-09-09T01:58:34.433Z,22.10
2022-09-09T02:01:27.218Z,20.23
2022-09-09T02:04:41.349Z,21.73
2022-09-09T02:07:31.382Z,19.77
2022-09-09T02:10:27.701Z,19.47
2022-09-09T02:13:17.136Z,20.57
2022-09-09T02:16:23.263Z,21.53
2022-09-09T02:19:10.188Z,19.90
2022-09-09T02:21:59.708Z,18.50
2022-09-09T02:24:48.124Z,19.20
2022-09-09T02:27:35.776Z,18.70
2022-09-09T02:30:23.155Z,19.80
2022-09-09T02:33:13.513Z,20.08
2022-09-09T02:36:04.490Z,18.87
2022-09-09T02:38:54.772Z,19.97
2022-09-09T02:41:42.957Z,18.30
2022-09-09T02:44:29.872Z,19.30
2022-09-09T02:47:57.788Z,20.53
2022-09-09T02:50:58.478Z,20.33
2022-09-09T02:54:11.631Z,19.20
2022-09-09T02:57:28.738Z,19.37
2022-09-09T03:00:15.921Z,18.17
2022-09-09T03:03:05.178Z,18.90
2022-09-09T03:05:52.162Z,19.00
2022-09-09T03:08:39.153Z,19.00
2022-09-09T03:11:26.143Z,16.87
2022-09-09T03:14:13.070Z,18.73
2022-09-09T03:17:01.860Z,18.87
2022-09-09T03:19:50.461Z,20.83
2022-09-09T03:22:37.411Z,18.77
2022-09-09T03:25:25.623Z,19.47
2022-09-09T03:28:12.527Z,19.47
2022-09-09T03:31:04.876Z,19.70
2022-09-09T03:33:51.823Z,17.57
2022-09-09T03:36:38.718Z,18.60
2022-09-09T03:39:25.637Z,20.27
2022-09-09T03:42:19.548Z,18.83
2022-09-09T03:45:10.065Z,18.97
2022-09-09T03:47:58.025Z,19.80
2022-09-09T03:50:53.388Z,19.50
2022-09-09T03:53:40.700Z,20.43
2022-09-09T03:56:27.547Z,18.40
2022-09-09T03:59:15.252Z,19.07
2022-09-09T04:02:03.476Z,21.23
2022-09-09T04:04:50.452Z,20.60
2022-09-09T04:07:37.420Z,20.60
2022-09-09T04:10:24.260Z,18.80
2022-09-09T04:13:12.450Z,19.83
2022-09-09T04:16:00.878Z,19.73
2022-09-09T04:18:48.338Z,18.80
2022-09-09T04:21:35.337Z,19.00
2022-09-09T04:24:22.494Z,21.00
2022-09-09T04:27:09.416Z,21.47
2022-09-09T04:29:57.620Z,19.13
2022-09-09T04:32:44.554Z,19.27
2022-09-09T04:35:31.889Z,18.77
2022-09-09T04:38:19.510Z,16.80
2022-09-09T04:41:07.014Z,21.40
2022-09-09T04:43:54.500Z,19.40
2022-09-09T04:46:42.395Z,18.57
2022-09-09T04:49:29.282Z,20.07
2022-09-09T04:52:18.193Z,23.05
2022-09-09T04:55:05.776Z,19.10
2022-09-09T04:57:52.659Z,19.00
2022-09-09T05:00:39.602Z,18.03
2022-09-09T05:03:27.476Z,18.23
2022-09-09T05:06:20.700Z,19.07
2022-09-09T05:09:07.666Z,18.67
2022-09-09T05:11:54.649Z,18.60
2022-09-09T05:14:41.654Z,18.87
2022-09-09T05:17:28.797Z,18.37
2022-09-09T05:20:17.576Z,18.43
2022-09-09T05:23:04.593Z,17.77
2022-09-09T05:25:58.910Z,18.10
2022-09-09T05:28:46.480Z,17.90
2022-09-09T05:31:33.919Z,16.57
2022-09-09T05:34:21.647Z,16.47
2022-09-09T05:37:08.802Z,16.67
2022-09-09T05:39:55.909Z,16.03
2022-09-09T05:42:42.973Z,16.30
2022-09-09T05:45:29.884Z,15.50
2022-09-09T05:48:16.890Z,15.97
2022-09-09T05:51:05.257Z,14.97
2022-09-09T05:53:52.532Z,15.33
2022-09-09T05:56:39.824Z,14.07
2022-09-09T05:59:26.780Z,15.37
2022-09-09T06:02:14.330Z,15.37
2022-09-09T06:05:01.338Z,13.73
2022-09-09T06:07:48.291Z,13.30
2022-09-09T06:10:35.397Z,13.87
2022-09-09T06:13:22.377Z,15.30
2022-09-09T06:16:18.872Z,13.07
2022-09-09T06:19:06.071Z,13.30
2022-09-09T06:21:53.174Z,12.60
2022-09-09T06:24:40.075Z,12.52
2022-09-09T06:27:28.607Z,13.10
2022-09-09T06:30:15.621Z,12.97
2022-09-09T06:33:02.545Z,11.67
2022-09-09T06:35:54.122Z,12.07
2022-09-09T06:38:41.262Z,10.60
2022-09-09T06:41:30.793Z,10.97
2022-09-09T06:44:17.673Z,11.40
2022-09-09T06:47:04.724Z,10.90
2022-09-09T06:49:51.727Z,10.97
2022-09-09T06:52:38.647Z,11.90
2022-09-09T06:55:25.531Z,9.77
2022-09-09T06:58:12.526Z,10.20
2022-09-09T07:01:04.880Z,10.38
2022-09-09T07:03:53.985Z,10.07
2022-09-09T07:06:44.130Z,9.10
2022-09-09T07:09:32.381Z,8.90
2022-09-09T07:12:19.264Z,9.53
2022-09-09T07:15:06.813Z,8.73
2022-09-09T07:17:54.869Z,7.63
2022-09-09T07:20:42.304Z,7.45
2022-09-09T07:23:33.082Z,6.47
2022-09-09T07:26:25.271Z,6.55
2022-09-09T07:29:19.843Z,7.10
2022-09-09T07:32:07.916Z,5.30
2022-09-09T07:34:54.912Z,5.93
2022-09-09T07:37:42.242Z,4.90
2022-09-09T07:40:29.981Z,4.15
2022-09-09T07:43:19.804Z,4.25
2022-09-09T07:46:07.141Z,4.03
2022-09-09T07:48:56.783Z,4.18
2022-09-09T07:51:46.208Z,3.80
2022-09-09T07:54:33.710Z,3.83
2022-09-09T07:57:20.645Z,3.70
2022-09-09T08:00:08.101Z,5.93
2022-09-09T08:02:55.212Z,4.00
2022-09-09T08:05:42.284Z,3.65
2022-09-09T08:08:30.567Z,3.80
2022-09-09T08:11:18.056Z,4.05
2022-09-09T08:14:05.817Z,4.15
2022-09-09T08:16:55.158Z,4.30
2022-09-09T08:19:42.273Z,4.10
2022-09-09T08:22:29.162Z,4.28
2022-09-09T08:25:16.455Z,4.20
2022-09-09T08:28:04.211Z,4.55
2022-09-09T08:30:54.207Z,4.18
2022-09-09T08:33:42.710Z,3.70
2022-09-09T08:36:31.371Z,3.97
2022-09-09T08:39:20.929Z,3.60
2022-09-09T08:42:16.626Z,3.33
2022-09-09T08:45:15.204Z,2.80
2022-09-09T08:48:20.689Z,3.35
2022-09-09T08:51:08.227Z,2.88
2022-09-09T08:53:59.685Z,2.67
2022-09-09T08:56:47.913Z,2.63
2022-09-09T08:59:34.854Z,2.90
2022-09-09T09:02:33.867Z,2.92
2022-09-09T09:05:53.360Z,3.20
2022-09-09T09:08:48.932Z,2.83
2022-09-09T09:11:50.036Z,2.92
2022-09-09T09:14:38.483Z,2.85
2022-09-09T09:17:28.884Z,2.58
2022-09-09T09:20:18.358Z,2.80
2022-09-09T09:23:06.835Z,2.67
2022-09-09T09:26:00.124Z,2.53
2022-09-09T09:28:47.069Z,2.78
2022-09-09T09:31:33.950Z,2.63
2022-09-09T09:34:20.918Z,2.47
2022-09-09T09:37:20.551Z,2.17
2022-09-09T09:40:20.124Z,2.50
2022-09-09T09:43:09.590Z,2.25
2022-09-09T09:46:16.664Z,2.38
2022-09-09T09:49:09.799Z,2.25
2022-09-09T09:52:02.950Z,2.40
2022-09-09T09:54:49.999Z,2.28
2022-09-09T09:57:37.518Z,2.53
2022-09-09T10:00:25.036Z,2.25
2022-09-09T10:03:25.483Z,2.70
2022-09-09T10:06:12.390Z,2.38
2022-09-09T10:09:00.151Z,2.40
2022-09-09T10:11:53.410Z,2.25
2022-09-09T10:15:14.245Z,2.17
2022-09-09T10:18:29.416Z,2.08
2022-09-09T10:21:37.468Z,2.33
2022-09-09T10:24:45.408Z,2.47
2022-09-09T10:27:41.348Z,2.20
2022-09-09T10:30:40.844Z,2.30
2022-09-09T10:33:51.107Z,1.88
2022-09-09T10:36:47.582Z,1.88
2022-09-09T10:39:43.151Z,2.17
2022-09-09T10:42:32.378Z,2.33
2022-09-09T10:45:34.718Z,1.98
2022-09-09T10:48:44.276Z,2.00
2022-09-09T10:52:11.811Z,1.60
2022-09-09T10:55:30.054Z,1.90
2022-09-09T10:58:24.173Z,1.73
2022-09-09T11:01:21.713Z,2.03
2022-09-09T11:04:20.184Z,1.50
2022-09-09T11:07:12.419Z,1.77
2022-09-09T11:10:07.331Z,1.50
2022-09-09T11:13:01.693Z,1.63
2022-09-09T11:16:11.387Z,1.42
2022-09-09T11:19:10.500Z,1.58
2022-09-09T11:21:59.713Z,1.77
2022-09-09T11:24:55.735Z,1.88
2022-09-09T11:28:16.629Z,1.60
2022-09-09T11:31:35.737Z,1.30
2022-09-09T11:34:51.571Z,1.67
2022-09-09T11:37:46.750Z,1.33
2022-09-09T11:40:34.272Z,1.58
2022-09-09T11:43:46.161Z,1.40
2022-09-09T11:46:39.118Z,1.50
2022-09-09T11:49:42.632Z,1.65
2022-09-09T11:52:44.324Z,1.45
2022-09-09T11:55:37.058Z,1.30
2022-09-09T11:58:24.012Z,1.40
2022-09-09T12:01:27.748Z,1.50
2022-09-09T12:04:29.775Z,1.52
2022-09-09T12:07:39.316Z,1.20
2022-09-09T12:10:33.723Z,1.35
2022-09-09T12:13:24.195Z,1.50
2022-09-09T12:16:36.136Z,1.58
2022-09-09T12:19:26.464Z,1.42
2022-09-09T12:22:31.975Z,1.42
2022-09-09T12:25:33.522Z,1.45
2022-09-09T12:28:34.617Z,1.52
2022-09-09T12:31:43.901Z,1.25
2022-09-09T12:34:40.158Z,1.10
2022-09-09T12:37:49.532Z,1.23
2022-09-09T12:40:36.532Z,1.10
2022-09-09T12:43:25.035Z,1.10
2022-09-09T12:46:27.161Z,1.33
2022-09-09T12:49:39.367Z,1.00
2022-09-09T12:52:39.775Z,1.20
2022-09-09T12:55:31.840Z,1.45
2022-09-09T12:58:20.278Z,1.50
2022-09-09T13:01:19.774Z,1.70
2022-09-09T13:04:23.441Z,1.25
2022-09-09T13:07:10.923Z,1.38
2022-09-09T13:09:59.442Z,1.58
2022-09-09T13:12:46.564Z,1.33
2022-09-09T13:15:33.477Z,1.40
2022-09-09T13:18:24.433Z,1.25
2022-09-09T13:21:11.531Z,1.40
2022-09-09T13:24:00.616Z,1.42
2022-09-09T13:26:57.424Z,1.50
2022-09-09T13:29:53.441Z,1.60
2022-09-09T13:32:41.154Z,1.60
2022-09-09T13:35:28.977Z,1.75
2022-09-09T13:38:16.975Z,1.75
2022-09-09T13:41:06.654Z,1.92
2022-09-09T13:43:56.207Z,1.60
2022-09-09T13:46:43.448Z,1.90
2022-09-09T13:49:31.389Z,2.15
2022-09-09T13:52:19.807Z,1.90
2022-09-09T13:55:09.020Z,1.60
2022-09-09T13:58:01.604Z,2.38
2022-09-09T14:00:48.597Z,2.05
2022-09-09T14:03:35.616Z,1.60
2022-09-09T14:06:22.864Z,1.80
2022-09-09T14:09:13.563Z,1.95
2022-09-09T14:12:01.426Z,2.10
2022-09-09T14:14:48.366Z,2.33
2022-09-09T14:17:37.053Z,2.15
2022-09-09T14:20:23.988Z,2.03
2022-09-09T14:23:13.121Z,2.58
2022-09-09T14:26:00.079Z,2.38
2022-09-09T14:28:55.917Z,2.40
2022-09-09T14:31:43.158Z,3.03
2022-09-09T14:34:30.047Z,2.50
2022-09-09T14:37:17.730Z,2.50
2022-09-09T14:40:05.164Z,2.70
2022-09-09T14:42:53.731Z,2.85
2022-09-09T14:45:40.703Z,2.50
2022-09-09T14:48:27.674Z,2.38
2022-09-09T14:51:21.252Z,2.70
2022-09-09T14:54:08.365Z,2.47
2022-09-09T14:56:55.252Z,2.47
2022-09-09T14:59:42.145Z,2.30
2022-09-09T15:02:30.955Z,2.03
2022-09-09T15:05:18.007Z,1.80
2022-09-09T15:08:04.926Z,2.33
2022-09-09T15:10:51.812Z,2.17
2022-09-09T15:13:40.139Z,2.15
2022-09-09T15:16:28.904Z,1.95
2022-09-09T15:19:15.957Z,1.90
2022-09-09T15:22:03.305Z,1.70
2022-09-09T15:24:50.203Z,2.33
2022-09-09T15:27:39.636Z,2.00
2022-09-09T15:30:26.563Z,1.92
2022-09-09T15:33:13.426Z,2.00
2022-09-09T15:36:00.613Z,1.70
2022-09-09T15:38:48.536Z,1.90
2022-09-09T15:41:35.585Z,2.03
2022-09-09T15:44:26.280Z,2.30
2022-09-09T15:47:14.163Z,1.67
2022-09-09T15:50:01.055Z,1.90
2022-09-09T15:52:48.217Z,1.90
2022-09-09T15:55:35.132Z,2.10
2022-09-09T15:58:22.060Z,2.10
2022-09-09T16:01:12.218Z,2.40
2022-09-09T16:04:00.878Z,2.30
2022-09-09T16:06:47.840Z,1.98
2022-09-09T16:09:36.035Z,2.58
2022-09-09T16:12:22.965Z,2.50
2022-09-09T16:15:10.076Z,2.60
2022-09-09T16:17:56.951Z,2.45
2022-09-09T16:20:43.886Z,2.80
2022-09-09T16:23:30.885Z,2.45
2022-09-09T16:26:18.675Z,2.50
2022-09-09T16:29:05.909Z,2.33
2022-09-09T16:31:52.924Z,2.17
2022-09-09T16:34:39.778Z,2.00
2022-09-09T17:15:00.805Z,2.10
2022-09-09T17:17:50.016Z,2.50
2022-09-09T17:20:46.598Z,2.75
2022-09-09T17:23:38.961Z,2.38
2022-09-09T17:26:28.710Z,2.17
2022-09-09T17:29:15.641Z,2.20
2022-09-09T17:32:03.564Z,2.35
2022-09-09T17:34:50.443Z,2.15
2022-09-09T17:37:37.313Z,2.42
2022-09-09T17:40:24.375Z,2.50
2022-09-09T17:43:11.520Z,2.17
2022-09-09T17:46:10.555Z,2.40
2022-09-09T17:49:00.275Z,2.40
2022-09-09T17:51:47.237Z,2.50
2022-09-09T17:54:34.461Z,2.50
2022-09-09T17:57:23.133Z,2.38
2022-09-09T18:00:11.337Z,2.20
2022-09-09T18:02:58.322Z,2.20
2022-09-09T18:05:45.289Z,2.97
2022-09-09T18:08:36.588Z,2.35
2022-09-09T18:11:26.790Z,1.98
2022-09-09T18:14:25.439Z,2.20
2022-09-09T18:17:12.651Z,2.38
2022-09-09T18:19:59.509Z,2.40
2022-09-09T18:22:46.363Z,3.08
2022-09-09T18:25:41.296Z,2.50
2022-09-09T18:28:28.199Z,2.80
2022-09-09T18:31:17.391Z,3.30
2022-09-09T18:34:05.814Z,3.33
2022-09-09T18:36:54.920Z,3.00
2022-09-09T18:39:41.860Z,3.28
2022-09-09T18:42:28.811Z,3.90
2022-09-09T18:45:15.959Z,3.05
2022-09-09T18:48:02.859Z,3.72
2022-09-09T18:50:49.872Z,3.60
2022-09-09T18:53:37.434Z,3.65
2022-09-09T18:56:24.767Z,3.42
2022-09-09T18:59:14.934Z,2.63
2022-09-09T19:02:02.090Z,3.53
2022-09-09T19:04:50.141Z,3.50
2022-09-09T19:07:56.019Z,3.50
2022-09-09T19:10:42.900Z,3.72
2022-09-09T19:13:29.790Z,3.50
2022-09-09T19:16:17.633Z,3.80
2022-09-09T19:19:08.174Z,4.25
2022-09-09T19:21:58.229Z,3.35
2022-09-09T19:24:45.400Z,3.83
2022-09-09T19:27:32.561Z,3.35
2022-09-09T19:30:19.408Z,3.50
2022-09-09T19:33:06.650Z,3.85
2022-09-09T19:36:04.594Z,3.92
2022-09-09T19:38:53.465Z,4.40
2022-09-09T19:41:40.831Z,3.33
2022-09-09T19:44:27.794Z,3.78
2022-09-09T19:47:14.888Z,3.88
2022-09-09T19:50:02.119Z,4.00
2022-09-09T19:52:49.000Z,3.90
2022-09-09T19:55:39.271Z,4.07
2022-09-09T19:58:26.156Z,3.33
2022-09-09T20:01:19.363Z,3.83
2022-09-09T20:04:07.207Z,4.47
2022-09-09T20:06:55.182Z,4.60
2022-09-09T20:09:42.118Z,4.10
2022-09-09T20:12:29.007Z,3.72
2022-09-09T20:15:16.367Z,3.97
2022-09-09T20:18:04.495Z,4.28
2022-09-09T20:20:51.593Z,3.97
2022-09-09T20:23:39.272Z,4.20
2022-09-09T20:26:28.641Z,3.60
2022-09-09T20:29:18.094Z,3.63
2022-09-09T20:32:05.831Z,3.50
2022-09-09T20:34:53.191Z,3.67
2022-09-09T20:37:40.878Z,3.58
2022-09-09T20:40:31.556Z,3.42
2022-09-09T20:43:20.770Z,3.40
2022-09-09T20:46:07.729Z,3.88
2022-09-09T20:49:02.608Z,3.30
2022-09-09T20:51:50.903Z,3.20
2022-09-09T20:54:38.727Z,3.20
2022-09-09T20:57:25.708Z,3.75
2022-09-09T21:00:12.921Z,3.20
2022-09-09T21:03:00.073Z,3.70
2022-09-09T21:05:47.788Z,3.45
2022-09-09T21:08:35.419Z,3.65
2022-09-09T21:11:22.644Z,3.70
2022-09-09T21:14:10.064Z,3.70
2022-09-09T21:16:57.765Z,3.15
2022-09-09T21:19:45.080Z,3.58
2022-09-09T21:22:32.111Z,3.38
2022-09-09T21:25:18.951Z,3.00
2022-09-09T21:28:06.529Z,3.00
2022-09-09T21:30:55.901Z,3.25
2022-09-09T21:33:43.225Z,3.20
2022-09-09T21:36:30.219Z,3.53
2022-09-09T21:39:17.073Z,3.33
2022-09-09T21:42:04.099Z,3.20
2022-09-09T21:44:51.020Z,2.97
2022-09-09T21:47:37.919Z,3.80
2022-09-09T21:50:28.449Z,3.50
2022-09-09T21:53:20.139Z,3.38
2022-09-09T21:56:12.411Z,3.58
2022-09-09T21:59:03.637Z,3.25
2022-09-09T22:01:50.639Z,3.00
2022-09-09T22:04:37.651Z,3.72
2022-09-09T22:07:24.557Z,3.58
2022-09-09T22:10:12.906Z,3.50
2022-09-09T22:12:59.753Z,3.70
2022-09-09T22:15:47.002Z,4.10
2022-09-09T22:18:34.949Z,3.70
2022-09-09T22:21:22.693Z,3.20
2022-09-09T22:24:09.941Z,3.80
2022-09-09T22:26:56.818Z,4.10
2022-09-09T22:29:43.858Z,3.90
2022-09-09T22:32:31.164Z,4.20
2022-09-09T22:35:18.155Z,3.70
2022-09-09T22:38:05.181Z,3.88
2022-09-09T22:40:52.580Z,3.85
2022-09-09T22:43:42.257Z,4.60
2022-09-09T22:46:29.778Z,3.60
2022-09-09T22:49:16.759Z,3.22
2022-09-09T22:52:03.863Z,3.28
2022-09-09T22:54:51.629Z,3.65
2022-09-09T22:57:38.477Z,3.30
2022-09-09T23:00:26.153Z,3.58
2022-09-09T23:03:13.343Z,3.70
2022-09-09T23:06:01.879Z,3.85
2022-09-09T23:08:55.762Z,3.60
2022-09-09T23:11:42.751Z,3.50
2022-09-09T23:14:33.659Z,3.57
2022-09-09T23:17:20.939Z,3.53
2022-09-09T23:20:10.422Z,2.90
2022-09-09T23:22:57.291Z,3.85
2022-09-09T23:25:44.145Z,3.53
2022-09-09T23:28:36.147Z,3.60
2022-09-09T23:31:24.812Z,4.10
2022-09-09T23:34:12.935Z,3.27
2022-09-09T23:36:59.789Z,4.00
2022-09-09T23:39:47.756Z,3.90
2022-09-09T23:42:34.647Z,3.27
2022-09-09T23:45:21.608Z,3.70
2022-09-09T23:48:08.440Z,3.70
2022-09-09T23:50:55.359Z,3.50
2022-09-09T23:53:42.276Z,3.83
2022-09-09T23:56:35.509Z,3.50
2022-09-09T23:59:22.399Z,3.67
